Myrtle Beach International Airport Myrtle Beach US
ICAO: KMYR
IATA: MYR
Category: Large
Scheduled Services: Yes

Elevation: 25 ft
TransAlt. 18000 ft.

Airport Communications:
APP/DEP:119.2
ATIS:123.925
AWOS 3:124.5
CLNC DEL:119.7
CTAF:128.45
GND:120.3
TWR:128.45
UNICOM:122.95

KMYR Zoom In..

Runways:

(A) RW 18 length 9503 ft width 150 ft
ILS 109.50 / hdg 174

(B) RW 36 length 9503 ft width 150 ft
ILS 111.90 / hdg 354

Location; KMYR
Day. 29 / Time. 18.56 Zulu
* Altimeter: 30.06
* Temperature: 18° c. 64.4°f.
* Wind from: VRB° Speed 06 kn.
Dewpoint: 13° c.
Visibility: 10 Statute Miles.
Clouds: Broken 3000 ft.
Clouds: Broken 3600 ft.
Clouds: Overcast 5000 ft.

KMYR 291856Z VRB06KT 10SM BKN030 BKN036 OVC050 18/13 A3006 RMK AO2 SLP178 T01830133

Going to: --> -->


Wind From VRB°
Speed 06 kn.

 
 
jpsmedia worldairports.se 2020   terms of use